Time;durP1;ratioP1;P1;durP2;ratioP2;P2;SDS_P1;SDS_P2;PMS_P1;PMS_P2;Temp;Humidity;BMP_temperature;BMP_pressure;BME280_temperature;BME280_humidity;BME280_pressure;Samples;Min_cycle;Max_cycle;Signal;HPM_P1;HPM_P2
2022/07/23 00:02:25;;;;;;;20.83;18.08;;;26.50;78.10;;;;;;5052052;28;20403;-76
2022/07/23 00:04:51;;;;;;;23.13;19.20;;;26.50;78.00;;;;;;5034903;28;20549;-77
2022/07/23 00:07:17;;;;;;;22.98;19.02;;;26.50;78.00;;;;;;5039856;28;20059;-77
2022/07/23 00:09:42;;;;;;;21.23;18.77;;;26.50;78.00;;;;;;5052010;28;20098;-77
2022/07/23 00:12:08;;;;;;;25.52;19.65;;;26.50;78.40;;;;;;5047612;28;20283;-76
2022/07/23 00:14:34;;;;;;;22.05;19.48;;;26.40;78.70;;;;;;5035927;28;20041;-76
2022/07/23 00:16:59;;;;;;;24.35;18.70;;;26.40;78.80;;;;;;5039044;28;20024;-76
2022/07/23 00:19:25;;;;;;;27.67;20.27;;;26.30;79.20;;;;;;5049211;28;20028;-76
2022/07/23 00:21:51;;;;;;;23.00;20.48;;;26.30;79.30;;;;;;5047581;28;20021;-77
2022/07/23 00:24:16;;;;;;;22.63;19.75;;;26.30;79.30;;;;;;5039503;28;20029;-76
2022/07/23 00:26:42;;;;;;;24.05;19.30;;;26.30;79.30;;;;;;5037571;28;20029;-75
2022/07/23 00:29:08;;;;;;;21.10;18.75;;;26.20;79.80;;;;;;5044908;28;20025;-75
2022/07/23 00:31:34;;;;;;;22.30;18.67;;;26.20;79.10;;;;;;5051463;28;20024;-75
2022/07/23 00:34:01;;;;;;;22.08;19.00;;;26.20;79.00;;;;;;5040138;28;20487;-76
2022/07/23 00:36:27;;;;;;;24.17;18.63;;;26.20;78.70;;;;;;5036092;28;20121;-75
2022/07/23 00:38:53;;;;;;;20.95;18.80;;;26.20;78.50;;;;;;5041310;28;20029;-74
2022/07/23 00:41:19;;;;;;;20.63;18.33;;;26.20;78.60;;;;;;5035646;28;20020;-74
2022/07/23 00:43:44;;;;;;;22.10;19.20;;;26.20;78.60;;;;;;5041165;28;20048;-74
2022/07/23 00:46:10;;;;;;;22.58;18.00;;;26.20;78.80;;;;;;5034466;28;20013;-74
2022/07/23 00:48:36;;;;;;;21.65;18.02;;;26.20;78.90;;;;;;5042164;28;20468;-74
2022/07/23 00:51:02;;;;;;;19.55;17.17;;;26.20;78.90;;;;;;5035576;28;20472;-74
2022/07/23 00:53:28;;;;;;;21.30;18.23;;;26.20;79.10;;;;;;5042947;28;20033;-74
2022/07/23 00:55:55;;;;;;;23.33;18.88;;;26.10;78.90;;;;;;5051144;28;20031;-74
2022/07/23 00:58:20;;;;;;;21.58;18.65;;;26.10;78.90;;;;;;5042092;28;20021;-74
2022/07/23 01:00:46;;;;;;;24.05;18.45;;;26.10;78.90;;;;;;5034321;28;20047;-74
2022/07/23 01:03:12;;;;;;;21.92;18.42;;;26.10;78.70;;;;;;5046100;28;20494;-74
2022/07/23 01:05:38;;;;;;;21.40;18.17;;;26.10;78.80;;;;;;5033248;28;20033;-74
2022/07/23 01:08:05;;;;;;;22.40;18.30;;;26.10;78.70;;;;;;5042585;28;20029;-75
2022/07/23 01:10:31;;;;;;;19.33;17.33;;;26.10;78.80;;;;;;5033066;28;20109;-74
2022/07/23 01:12:59;;;;;;;24.85;17.63;;;26.10;78.80;;;;;;5043774;28;20116;-74
2022/07/23 01:15:24;;;;;;;20.55;17.88;;;26.10;79.00;;;;;;5032646;28;20026;-74
2022/07/23 01:17:50;;;;;;;20.42;18.33;;;26.00;78.90;;;;;;5044075;28;20467;-74
2022/07/23 01:20:17;;;;;;;23.27;18.60;;;26.00;79.10;;;;;;5032779;28;20033;-74
2022/07/23 01:22:43;;;;;;;26.70;18.55;;;26.00;79.20;;;;;;5044028;28;20475;-74
2022/07/23 01:25:09;;;;;;;22.33;17.88;;;26.00;79.20;;;;;;5032557;28;20099;-74
2022/07/23 01:27:35;;;;;;;23.17;18.08;;;25.90;79.20;;;;;;5043796;28;20498;-74
2022/07/23 01:30:02;;;;;;;21.33;17.55;;;25.90;79.20;;;;;;5032555;28;20025;-74
2022/07/23 01:32:28;;;;;;;20.17;17.58;;;25.90;79.10;;;;;;5043034;28;20025;-74
2022/07/23 01:34:53;;;;;;;21.00;17.08;;;25.90;79.20;;;;;;5031717;28;20042;-74
2022/07/23 01:37:19;;;;;;;19.63;17.48;;;25.90;79.30;;;;;;5041644;28;20055;-74
2022/07/23 01:39:45;;;;;;;21.60;18.05;;;25.90;79.20;;;;;;5034172;28;20079;-74
2022/07/23 01:42:10;;;;;;;24.33;18.52;;;25.90;79.20;;;;;;5034809;28;20399;-74
2022/07/23 01:44:36;;;;;;;23.38;18.40;;;25.80;79.20;;;;;;5049216;28;20076;-74
2022/07/23 01:47:02;;;;;;;21.05;17.83;;;25.90;79.30;;;;;;5046362;28;20025;-74
2022/07/23 01:49:28;;;;;;;21.92;18.35;;;25.80;79.30;;;;;;5036382;28;20037;-74
2022/07/23 01:51:59;;;;;;;20.70;18.13;;;25.80;79.50;;;;;;5037936;28;20722;-74
2022/07/23 01:54:30;;;;;;;20.35;18.25;;;25.70;79.50;;;;;;5035324;28;20112;-74
2022/07/23 01:56:56;;;;;;;19.90;17.95;;;25.70;79.70;;;;;;5037179;28;20468;-74
2022/07/23 01:59:23;;;;;;;21.45;17.52;;;25.70;79.70;;;;;;5046884;28;20079;-74
2022/07/23 02:01:50;;;;;;;24.77;19.15;;;25.70;79.80;;;;;;5044784;28;20028;-74
2022/07/23 02:04:17;;;;;;;22.50;18.35;;;25.70;79.90;;;;;;5037746;28;20112;-74
2022/07/23 02:06:43;;;;;;;21.48;18.42;;;25.70;80.00;;;;;;5036024;28;20021;-74
2022/07/23 02:09:09;;;;;;;26.27;18.00;;;25.70;80.10;;;;;;5038794;28;20395;-74
2022/07/23 02:11:34;;;;;;;20.80;18.55;;;25.70;80.20;;;;;;5034973;28;20465;-75
2022/07/23 02:14:00;;;;;;;19.45;17.38;;;25.60;80.00;;;;;;5039575;28;20041;-75
2022/07/23 02:16:27;;;;;;;22.83;18.27;;;25.70;80.10;;;;;;5033071;28;20428;-75
2022/07/23 02:18:53;;;;;;;21.52;19.02;;;25.70;80.00;;;;;;5039159;28;20026;-76
2022/07/23 02:21:19;;;;;;;21.05;18.92;;;25.70;80.10;;;;;;5032641;28;20025;-76
2022/07/23 02:23:45;;;;;;;24.27;18.77;;;25.60;80.00;;;;;;5040542;28;20026;-75
2022/07/23 02:26:10;;;;;;;23.27;18.00;;;25.60;80.10;;;;;;5034047;28;20456;-76
2022/07/23 02:28:36;;;;;;;25.75;19.00;;;25.60;80.20;;;;;;5040202;28;20527;-76
2022/07/23 02:31:03;;;;;;;20.10;17.88;;;25.60;80.50;;;;;;5033950;28;20028;-77
2022/07/23 02:33:29;;;;;;;20.33;18.25;;;25.60;80.40;;;;;;5038796;28;20438;-77
2022/07/23 02:35:54;;;;;;;21.98;18.58;;;25.50;80.40;;;;;;5032135;28;20033;-77
2022/07/23 02:38:24;;;;;;;22.25;18.77;;;25.50;80.30;;;;;;5038959;28;20391;-77
2022/07/23 02:40:49;;;;;;;22.05;18.58;;;25.50;80.40;;;;;;5032971;28;20024;-77
2022/07/23 02:43:15;;;;;;;21.65;19.42;;;25.40;80.40;;;;;;5040708;28;20067;-77
2022/07/23 02:45:43;;;;;;;22.25;18.98;;;25.40;80.60;;;;;;5031562;28;20068;-77
2022/07/23 02:48:12;;;;;;;19.95;17.77;;;25.40;80.60;;;;;;5041871;28;20024;-77
2022/07/23 02:50:38;;;;;;;23.52;19.02;;;25.40;80.80;;;;;;5029797;28;20037;-77
2022/07/23 02:53:04;;;;;;;22.73;18.48;;;25.40;80.80;;;;;;5042005;28;20016;-77
2022/07/23 02:55:31;;;;;;;28.70;18.38;;;25.40;80.70;;;;;;5029663;28;20387;-77
2022/07/23 02:57:57;;;;;;;22.98;16.92;;;25.30;80.50;;;;;;5042165;28;20088;-77
2022/07/23 03:00:22;;;;;;;20.70;18.52;;;25.40;80.60;;;;;;5031093;28;20025;-77
2022/07/23 03:02:48;;;;;;;20.88;16.60;;;25.40;80.50;;;;;;5043043;28;20380;-76
2022/07/23 03:05:14;;;;;;;20.00;17.58;;;25.30;80.50;;;;;;5031145;28;20361;-77
2022/07/23 03:07:39;;;;;;;19.90;17.48;;;25.40;80.60;;;;;;5042061;28;20222;-77
2022/07/23 03:10:05;;;;;;;20.70;16.77;;;25.30;80.40;;;;;;5031091;28;20472;-77
2022/07/23 03:12:31;;;;;;;19.63;17.48;;;25.30;80.50;;;;;;5040968;28;20041;-77
2022/07/23 03:14:57;;;;;;;23.25;17.92;;;25.40;80.40;;;;;;5031059;28;20517;-77
2022/07/23 03:17:23;;;;;;;18.95;16.98;;;25.30;80.20;;;;;;5040887;28;20018;-76
2022/07/23 03:19:49;;;;;;;22.67;17.13;;;25.30;80.20;;;;;;5032066;28;20036;-76
2022/07/23 03:22:14;;;;;;;22.33;17.45;;;25.30;80.20;;;;;;5039627;28;20104;-77
2022/07/23 03:24:58;;;;;;;19.02;17.05;;;25.30;80.20;;;;;;5032136;28;20472;-77
2022/07/23 03:27:26;;;;;;;19.08;17.08;;;25.30;80.00;;;;;;5040987;28;20433;-77
2022/07/23 03:29:53;;;;;;;19.65;17.23;;;25.30;79.60;;;;;;5031626;28;20120;-77
2022/07/23 03:32:20;;;;;;;18.60;16.48;;;25.30;79.60;;;;;;5040157;28;20028;-77
2022/07/23 03:34:46;;;;;;;19.50;16.85;;;25.40;79.40;;;;;;5032483;28;20079;-76
2022/07/23 03:37:12;;;;;;;18.83;16.38;;;25.40;79.50;;;;;;5039000;28;20017;-77
2022/07/23 03:39:37;;;;;;;20.63;17.25;;;25.40;79.30;;;;;;5033501;28;20045;-76
2022/07/23 03:42:03;;;;;;;20.52;17.58;;;25.40;79.50;;;;;;5037916;28;20037;-77
2022/07/23 03:44:29;;;;;;;21.23;16.83;;;25.40;79.50;;;;;;5034600;28;20034;-77
2022/07/23 03:46:54;;;;;;;18.92;16.20;;;25.40;79.50;;;;;;5035413;28;20032;-77
2022/07/23 03:49:23;;;;;;;19.08;17.02;;;25.40;79.50;;;;;;5035910;28;20113;-76
2022/07/23 03:51:49;;;;;;;18.75;16.85;;;25.40;79.40;;;;;;5034492;28;20065;-76
2022/07/23 03:54:15;;;;;;;19.40;17.27;;;25.40;79.30;;;;;;5036391;28;20126;-76
2022/07/23 03:56:41;;;;;;;19.58;17.58;;;25.50;79.40;;;;;;5034602;28;20021;-76
2022/07/23 03:59:06;;;;;;;23.75;17.98;;;25.50;79.30;;;;;;5049406;28;20032;-76
2022/07/23 04:01:32;;;;;;;20.52;18.33;;;25.50;79.10;;;;;;5048315;28;20061;-77
2022/07/23 04:03:58;;;;;;;21.20;18.02;;;25.50;79.00;;;;;;5041738;28;20407;-77
2022/07/23 04:06:23;;;;;;;23.20;18.52;;;25.50;78.80;;;;;;5036355;28;20056;-76
2022/07/23 04:08:49;;;;;;;22.30;19.98;;;25.60;78.60;;;;;;5042861;28;20021;-76
2022/07/23 04:11:15;;;;;;;24.20;20.17;;;25.60;78.40;;;;;;5036545;28;20462;-77
2022/07/23 04:13:40;;;;;;;22.75;19.80;;;25.60;78.10;;;;;;5041373;28;20032;-77
2022/07/23 04:16:06;;;;;;;22.38;20.08;;;25.70;78.00;;;;;;5035105;28;20025;-76
2022/07/23 04:18:32;;;;;;;24.48;20.70;;;25.70;78.00;;;;;;5042830;28;20025;-77
2022/07/23 04:20:58;;;;;;;24.30;21.15;;;25.70;77.90;;;;;;5036105;28;20037;-77
2022/07/23 04:23:23;;;;;;;30.98;21.63;;;25.70;77.90;;;;;;5042688;28;20384;-77
2022/07/23 04:25:49;;;;;;;24.60;21.88;;;25.70;77.80;;;;;;5035062;28;20017;-77
2022/07/23 04:28:15;;;;;;;28.60;22.33;;;25.70;77.80;;;;;;5043359;28;20026;-78
2022/07/23 04:30:40;;;;;;;25.38;21.65;;;25.70;77.80;;;;;;5034049;28;20018;-77
2022/07/23 04:33:06;;;;;;;27.17;21.83;;;25.70;77.60;;;;;;5048960;28;20017;-78
2022/07/23 04:35:36;;;;;;;25.35;21.35;;;25.70;77.40;;;;;;5032232;28;20029;-78
2022/07/23 04:38:02;;;;;;;24.70;22.08;;;25.80;77.70;;;;;;5059880;28;20056;-77
2022/07/23 04:40:28;;;;;;;25.77;21.88;;;25.80;77.40;;;;;;5033544;28;20025;-77
2022/07/23 04:42:57;;;;;;;28.52;22.10;;;25.80;77.40;;;;;;5041714;28;20178;-77
2022/07/23 04:45:25;;;;;;;23.65;20.77;;;25.90;77.40;;;;;;5051955;28;20035;-78
2022/07/23 04:47:51;;;;;;;21.58;19.35;;;25.90;77.30;;;;;;5040160;28;20396;-78
2022/07/23 04:50:18;;;;;;;29.52;20.95;;;26.00;77.30;;;;;;5053288;28;20029;-77
2022/07/23 04:52:44;;;;;;;25.50;19.73;;;26.10;77.30;;;;;;5045325;28;20025;-77
2022/07/23 04:55:10;;;;;;;21.98;19.65;;;26.10;77.10;;;;;;5032025;28;20407;-77
2022/07/23 04:57:35;;;;;;;23.80;20.80;;;26.20;77.00;;;;;;5044622;28;20032;-77
2022/07/23 05:00:03;;;;;;;24.02;21.02;;;26.30;76.80;;;;;;5033197;28;20410;-76
2022/07/23 05:02:29;;;;;;;26.73;20.30;;;26.40;76.80;;;;;;5048029;28;20028;-77
2022/07/23 05:04:54;;;;;;;24.20;19.85;;;26.40;76.50;;;;;;5033601;28;20018;-77
2022/07/23 05:07:24;;;;;;;23.42;20.38;;;26.50;76.40;;;;;;5038040;28;20026;-77
2022/07/23 05:09:49;;;;;;;21.50;19.20;;;26.60;76.10;;;;;;5051642;28;20021;-77
2022/07/23 05:12:15;;;;;;;24.52;21.10;;;26.60;75.80;;;;;;5046611;28;20029;-77
2022/07/23 05:14:41;;;;;;;23.58;19.85;;;26.80;75.90;;;;;;5034912;28;20088;-77
2022/07/23 05:17:07;;;;;;;22.58;20.05;;;26.80;75.60;;;;;;5040227;28;20110;-77
2022/07/23 05:19:34;;;;;;;30.83;20.83;;;26.90;75.50;;;;;;5036255;28;20036;-77
2022/07/23 05:22:00;;;;;;;23.35;20.23;;;26.90;75.30;;;;;;5039896;28;20441;-77
2022/07/23 05:24:29;;;;;;;23.52;20.27;;;27.00;74.90;;;;;;5048412;28;20112;-77
2022/07/23 05:26:54;;;;;;;22.45;19.55;;;27.10;75.00;;;;;;5046209;28;20124;-77
2022/07/23 05:29:20;;;;;;;25.02;19.05;;;27.20;75.20;;;;;;5037973;28;20503;-77
2022/07/23 05:31:46;;;;;;;22.25;19.85;;;27.20;74.90;;;;;;5041569;28;20029;-77
2022/07/23 05:34:14;;;;;;;20.77;18.67;;;27.30;75.10;;;;;;5038961;28;20464;-77
2022/07/23 05:36:40;;;;;;;23.85;18.98;;;27.30;74.70;;;;;;5039281;28;20044;-77
2022/07/23 05:39:05;;;;;;;23.30;19.05;;;27.40;74.70;;;;;;5044988;28;20017;-77
2022/07/23 05:41:34;;;;;;;22.08;19.63;;;27.50;75.00;;;;;;5045757;28;20033;-77
2022/07/23 05:44:00;;;;;;;32.50;19.63;;;27.50;74.80;;;;;;5040214;28;20484;-78
2022/07/23 05:46:26;;;;;;;21.25;19.13;;;27.60;74.40;;;;;;5034721;28;20036;-78
2022/07/23 05:48:51;;;;;;;26.70;19.00;;;27.70;74.70;;;;;;5040867;28;20057;-76
2022/07/23 05:51:21;;;;;;;23.55;19.38;;;27.70;74.50;;;;;;5034676;28;20037;-77
2022/07/23 05:53:47;;;;;;;20.98;18.75;;;27.80;74.40;;;;;;5040980;28;20037;-77
2022/07/23 05:56:13;;;;;;;23.10;18.90;;;27.90;74.50;;;;;;5034507;28;20013;-77
2022/07/23 05:58:39;;;;;;;20.75;18.58;;;28.00;74.40;;;;;;5039466;28;20127;-77
2022/07/23 06:01:05;;;;;;;21.20;18.88;;;28.10;74.40;;;;;;5034685;28;20048;-76
2022/07/23 06:03:30;;;;;;;20.60;18.42;;;28.10;74.10;;;;;;5044959;28;20428;-77
2022/07/23 06:05:56;;;;;;;21.05;18.67;;;28.20;74.00;;;;;;5034168;28;20017;-77
2022/07/23 06:08:22;;;;;;;24.88;19.30;;;28.30;73.80;;;;;;5040783;28;20502;-77
2022/07/23 06:10:47;;;;;;;22.60;18.77;;;28.40;73.80;;;;;;5032417;28;20029;-77
2022/07/23 06:13:14;;;;;;;27.42;19.38;;;28.50;73.50;;;;;;5041628;28;20485;-77
2022/07/23 06:15:40;;;;;;;23.70;19.08;;;28.60;73.60;;;;;;5050126;28;20124;-77
2022/07/23 06:18:05;;;;;;;27.38;18.83;;;28.60;73.20;;;;;;5038374;28;20323;-77
2022/07/23 06:20:31;;;;;;;22.95;18.85;;;28.70;73.10;;;;;;5050636;28;20028;-77
2022/07/23 06:22:57;;;;;;;26.40;18.77;;;28.90;72.70;;;;;;5040267;28;20467;-77
2022/07/23 06:25:22;;;;;;;23.90;20.48;;;28.90;72.80;;;;;;5050804;28;20021;-77
2022/07/23 06:27:49;;;;;;;28.48;20.10;;;29.00;72.70;;;;;;5043046;28;20372;-76
2022/07/23 06:30:17;;;;;;;22.23;19.83;;;29.10;72.40;;;;;;5031741;28;20035;-77
2022/07/23 06:32:43;;;;;;;21.60;19.35;;;29.20;72.10;;;;;;5046902;28;20053;-78
2022/07/23 06:35:09;;;;;;;23.80;20.27;;;29.30;71.70;;;;;;5031329;28;20033;-78
2022/07/23 06:37:35;;;;;;;25.25;20.27;;;29.40;71.50;;;;;;5042847;28;20552;-77
2022/07/23 06:40:01;;;;;;;25.25;19.80;;;29.60;71.60;;;;;;5030153;28;20033;-78
2022/07/23 06:42:26;;;;;;;23.58;19.17;;;29.60;71.10;;;;;;5040383;28;20048;-78
2022/07/23 06:44:52;;;;;;;27.20;20.50;;;29.70;70.70;;;;;;5030801;28;20091;-77
2022/07/23 06:47:19;;;;;;;25.42;21.27;;;29.80;69.20;;;;;;5038106;28;20049;-77
2022/07/23 06:49:45;;;;;;;26.58;20.70;;;30.00;68.20;;;;;;5049353;28;20029;-79
2022/07/23 06:52:10;;;;;;;27.23;21.27;;;30.10;68.00;;;;;;5043051;28;20489;-78
2022/07/23 06:54:36;;;;;;;43.47;23.05;;;30.20;67.70;;;;;;5034013;28;20118;-78
2022/07/23 06:57:02;;;;;;;38.42;23.23;;;30.30;73.20;;;;;;5038190;28;20029;-78
2022/07/23 06:59:28;;;;;;;29.77;23.13;;;30.40;75.20;;;;;;5035208;28;20014;-77
2022/07/23 07:01:53;;;;;;;35.63;23.10;;;30.40;74.40;;;;;;5036980;28;20017;-77
2022/07/23 07:04:19;;;;;;;28.63;22.77;;;30.30;75.70;;;;;;5036618;28;20402;-77
2022/07/23 07:06:45;;;;;;;35.97;24.05;;;30.30;77.30;;;;;;5035537;28;20029;-76
2022/07/23 07:09:10;;;;;;;45.83;27.40;;;30.30;81.20;;;;;;5037532;28;20152;-77
2022/07/23 07:11:36;;;;;;;31.40;26.15;;;30.40;81.90;;;;;;5034518;28;20033;-77
2022/07/23 07:14:04;;;;;;;33.80;26.77;;;30.40;79.10;;;;;;5038638;28;20029;-77
2022/07/23 07:16:29;;;;;;;31.48;26.27;;;30.50;77.30;;;;;;5033417;28;20025;-76
2022/07/23 07:18:55;;;;;;;33.22;25.45;;;30.60;77.20;;;;;;5039727;28;20025;-78
2022/07/23 07:21:20;;;;;;;33.35;25.17;;;30.60;77.00;;;;;;5033261;28;20029;-77
2022/07/23 07:23:46;;;;;;;30.63;25.23;;;30.70;76.20;;;;;;5041096;28;20032;-77
2022/07/23 07:26:12;;;;;;;40.45;24.85;;;30.70;76.20;;;;;;5046686;28;20025;-78
2022/07/23 07:28:38;;;;;;;31.55;25.55;;;30.70;78.10;;;;;;5038258;28;20021;-77
2022/07/23 07:31:04;;;;;;;30.73;26.17;;;30.70;77.60;;;;;;5033459;28;20083;-78
2022/07/23 07:33:30;;;;;;;27.80;24.90;;;30.70;80.20;;;;;;5043934;28;20496;-77
2022/07/23 07:35:55;;;;;;;28.40;23.13;;;30.50;83.60;;;;;;5031604;28;20037;-77
2022/07/23 07:38:21;;;;;;;31.92;25.13;;;30.30;87.70;;;;;;5043153;28;20471;-77
2022/07/23 07:40:47;;;;;;;31.40;24.90;;;30.20;86.50;;;;;;5035696;28;20029;-77
2022/07/23 07:43:12;;;;;;;32.70;24.55;;;30.00;84.70;;;;;;5044451;28;20407;-77
2022/07/23 07:45:38;;;;;;;31.30;24.17;;;30.10;85.20;;;;;;5034914;28;20523;-77
2022/07/23 07:48:04;;;;;;;33.20;24.08;;;30.10;84.60;;;;;;5045586;28;20057;-77
2022/07/23 07:50:30;;;;;;;31.33;23.33;;;30.20;85.00;;;;;;5033016;28;20030;-77
2022/07/23 07:52:56;;;;;;;31.55;24.17;;;30.20;85.30;;;;;;5044389;28;20427;-79
2022/07/23 07:55:22;;;;;;;33.13;23.98;;;30.20;82.50;;;;;;5054153;28;20033;-77
2022/07/23 07:57:48;;;;;;;30.05;24.50;;;30.20;86.30;;;;;;5040475;28;20075;-79
2022/07/23 08:00:13;;;;;;;30.90;25.08;;;30.10;88.30;;;;;;5054550;28;20074;-79
2022/07/23 08:02:52;;;;;;;28.40;25.23;;;30.10;86.20;;;;;;5051053;28;20074;-76
2022/07/23 08:05:27;;;;;;;27.45;23.92;;;30.10;82.40;;;;;;5034214;28;20396;-76
2022/07/23 08:07:53;;;;;;;30.23;23.25;;;30.20;86.90;;;;;;5045619;28;20025;-76
2022/07/23 08:10:22;;;;;;;31.30;23.90;;;30.30;85.90;;;;;;5033005;28;20033;-76
2022/07/23 08:12:50;;;;;;;27.02;21.50;;;30.40;83.20;;;;;;5045301;28;20021;-76
2022/07/23 08:15:18;;;;;;;23.48;21.00;;;30.50;78.20;;;;;;5032822;28;20041;-78
2022/07/23 08:17:44;;;;;;;24.63;19.02;;;30.70;76.40;;;;;;5045147;28;20017;-79
2022/07/23 08:20:12;;;;;;;23.80;19.70;;;30.90;73.70;;;;;;5034060;28;20516;-80
2022/07/23 08:22:45;;;;;;;25.13;18.80;;;30.90;73.70;;;;;;5045334;28;20029;-77
2022/07/23 08:25:11;;;;;;;24.92;16.83;;;30.90;73.50;;;;;;5034103;28;20032;-78
2022/07/23 08:27:36;;;;;;;24.30;18.67;;;31.00;70.70;;;;;;5045019;28;20037;-77
2022/07/23 08:30:03;;;;;;;28.35;20.23;;;31.10;73.50;;;;;;5033739;28;20029;-77
2022/07/23 08:32:28;;;;;;;22.90;18.60;;;31.20;74.60;;;;;;5048750;28;20108;-78
2022/07/23 08:34:54;;;;;;;20.63;17.98;;;31.40;72.00;;;;;;5034292;28;20128;-79
2022/07/23 08:37:20;;;;;;;28.00;20.08;;;31.40;71.70;;;;;;5036090;28;20033;-80
2022/07/23 08:39:46;;;;;;;24.67;17.60;;;31.40;72.60;;;;;;5051941;28;20025;-78
2022/07/23 08:42:13;;;;;;;19.20;17.05;;;31.40;71.10;;;;;;5041588;28;20045;-79
2022/07/23 08:44:44;;;;;;;23.35;17.17;;;31.50;71.70;;;;;;5035805;28;20090;-79
2022/07/23 08:47:11;;;;;;;21.40;17.50;;;31.50;71.20;;;;;;5041721;28;20104;-78
2022/07/23 08:49:37;;;;;;;36.47;17.20;;;31.50;71.40;;;;;;5034634;28;20025;-80
2022/07/23 08:52:04;;;;;;;22.75;17.08;;;31.50;71.90;;;;;;5034621;28;20083;-78
2022/07/23 08:54:30;;;;;;;18.73;16.75;;;31.60;72.10;;;;;;5046969;28;20558;-80
2022/07/23 08:56:56;;;;;;;19.90;17.27;;;31.60;71.40;;;;;;5046888;28;20036;-81
2022/07/23 08:59:22;;;;;;;28.48;16.27;;;31.60;71.90;;;;;;5038488;28;20425;-81
2022/07/23 09:01:48;;;;;;;18.33;15.35;;;31.50;71.40;;;;;;5038260;28;20029;-82
2022/07/23 09:04:13;;;;;;;19.02;15.40;;;31.40;71.50;;;;;;5039419;28;21740;-76
2022/07/23 09:06:39;;;;;;;16.08;14.15;;;31.40;71.50;;;;;;5039115;28;20051;-78
2022/07/23 09:09:21;;;;;;;23.05;13.80;;;31.40;69.70;;;;;;5035758;28;20124;-77
2022/07/23 09:11:47;;;;;;;23.73;14.27;;;31.50;68.20;;;;;;5038823;28;20029;-78
2022/07/23 09:14:14;;;;;;;21.38;13.90;;;31.40;67.40;;;;;;5043917;28;20296;-78
2022/07/23 09:16:40;;;;;;;15.40;13.80;;;31.50;68.50;;;;;;5036146;28;20032;-80
2022/07/23 09:19:07;;;;;;;18.33;13.07;;;31.60;67.00;;;;;;5035405;28;20028;-82
2022/07/23 09:21:37;;;;;;;20.63;13.75;;;31.60;67.80;;;;;;5034048;28;20025;-81
2022/07/23 09:24:11;;;;;;;17.90;12.52;;;31.70;67.50;;;;;;5045112;28;20037;-82
2022/07/23 09:26:38;;;;;;;17.17;13.32;;;31.90;68.10;;;;;;5046460;28;20116;-79
2022/07/23 09:29:17;;;;;;;15.82;13.63;;;31.90;67.70;;;;;;5040399;28;20018;-80
2022/07/23 09:31:47;;;;;;;18.95;14.40;;;32.00;67.40;;;;;;5036081;28;20038;-81
2022/07/23 09:34:18;;;;;;;19.85;14.95;;;32.10;66.50;;;;;;5037802;28;20069;-81
2022/07/23 09:36:44;;;;;;;21.85;15.95;;;32.10;66.60;;;;;;5039455;28;20025;-80
2022/07/23 09:39:11;;;;;;;25.70;15.07;;;32.10;67.20;;;;;;5032757;28;20028;-82
2022/07/23 09:41:40;;;;;;;18.90;14.88;;;32.20;67.00;;;;;;5036091;28;20031;-81
2022/07/23 09:44:11;;;;;;;22.52;15.10;;;32.40;66.70;;;;;;5030681;28;20021;-83
2022/07/23 09:46:39;;;;;;;20.35;14.70;;;32.40;66.10;;;;;;5033372;28;20618;-83
2022/07/23 09:49:16;;;;;;;19.50;14.32;;;32.50;66.60;;;;;;5037860;28;20017;-81
2022/07/23 09:51:48;;;;;;;19.75;14.05;;;32.60;66.20;;;;;;5036275;28;20035;-78
2022/07/23 09:54:25;;;;;;;23.58;14.38;;;32.60;66.50;;;;;;5044646;28;20388;-80
2022/07/23 09:56:55;;;;;;;19.45;13.82;;;32.70;65.70;;;;;;5041101;28;20453;-81
2022/07/23 09:59:30;;;;;;;17.10;13.43;;;32.70;66.30;;;;;;5058457;28;20021;-78
2022/07/23 10:01:59;;;;;;;26.58;14.30;;;32.80;66.70;;;;;;5043313;28;20037;-85
2022/07/23 10:04:27;;;;;;;16.38;12.70;;;33.00;65.70;;;;;;5057028;28;20091;-80
2022/07/23 10:06:54;;;;;;;15.45;13.13;;;32.90;65.00;;;;;;5045548;28;20051;-77
2022/07/23 10:09:32;;;;;;;18.98;13.90;;;32.80;65.60;;;;;;5037264;28;20699;-80
2022/07/23 10:14:48;;;;;;;18.23;12.63;;;32.80;65.90;;;;;;5035173;28;20060;-78
2022/07/23 10:17:15;;;;;;;18.60;11.85;;;32.70;66.10;;;;;;5038132;28;20029;-79
2022/07/23 10:19:41;;;;;;;12.68;11.40;;;32.70;65.80;;;;;;5032753;28;20116;-80
2022/07/23 10:22:11;;;;;;;12.90;10.90;;;32.70;65.20;;;;;;5038551;28;20617;-79
2022/07/23 10:25:16;;;;;;;15.20;11.18;;;32.50;64.70;;;;;;5048597;28;20025;-82
2022/07/23 10:28:16;;;;;;;15.02;11.80;;;32.40;65.10;;;;;;5040580;28;20037;-78
2022/07/23 10:31:14;;;;;;;12.48;10.00;;;32.40;65.80;;;;;;5032408;28;20387;-81
2022/07/23 10:34:02;;;;;;;13.30;10.35;;;32.30;64.20;;;;;;5038479;28;20037;-83
2022/07/23 10:36:30;;;;;;;15.90;13.77;;;32.00;65.10;;;;;;5032285;28;20026;-79
2022/07/23 10:39:07;;;;;;;13.95;12.55;;;31.80;67.50;;;;;;5041271;28;20032;-82
2022/07/23 10:41:36;;;;;;;16.60;10.43;;;31.80;66.60;;;;;;5046548;28;20032;-78
2022/07/23 10:44:13;;;;;;;11.88;10.35;;;31.80;65.40;;;;;;5036178;28;20423;-78
2022/07/23 10:49:33;;;;;;;14.95;11.27;;;31.70;65.90;;;;;;5035022;28;20557;-79
2022/07/23 10:52:14;;;;;;;14.85;10.73;;;31.80;65.80;;;;;;5037734;28;20479;-79
2022/07/23 10:54:41;;;;;;;13.00;9.32;;;31.90;65.20;;;;;;5051118;28;20037;-84
2022/07/23 10:57:08;;;;;;;21.52;10.23;;;31.90;65.50;;;;;;5042558;28;20030;-81
2022/07/23 11:00:03;;;;;;;12.70;10.30;;;32.00;65.90;;;;;;5031338;28;20029;-85
2022/07/23 11:02:30;;;;;;;15.32;11.80;;;32.10;65.40;;;;;;5039169;28;20167;-81
2022/07/23 11:05:00;;;;;;;13.90;12.52;;;32.40;66.50;;;;;;5031735;28;20025;-84
2022/07/23 11:07:26;;;;;;;14.57;12.80;;;32.30;67.00;;;;;;5038567;28;20025;-87
2022/07/23 11:09:53;;;;;;;12.93;11.25;;;32.20;67.30;;;;;;5032081;28;20145;-82
2022/07/23 11:12:19;;;;;;;13.45;11.65;;;32.20;66.60;;;;;;5038119;28;20025;-82
2022/07/23 11:15:10;;;;;;;15.98;10.80;;;32.40;66.70;;;;;;5053227;28;20040;-85
2022/07/23 11:17:57;;;;;;;22.30;10.23;;;32.60;65.70;;;;;;5043324;28;20139;-83
2022/07/23 11:20:24;;;;;;;8.68;7.78;;;32.70;64.80;;;;;;5053672;28;20071;-82
2022/07/23 11:22:58;;;;;;;12.95;7.82;;;32.70;63.30;;;;;;5041252;28;20463;-78
2022/07/23 11:25:30;;;;;;;12.45;9.00;;;32.70;62.80;;;;;;5054865;28;20029;-77
2022/07/23 11:28:09;;;;;;;9.55;7.63;;;32.70;63.40;;;;;;5049075;28;20030;-79
2022/07/23 11:30:35;;;;;;;14.13;9.70;;;32.80;62.50;;;;;;5034751;28;20029;-78
2022/07/23 11:33:07;;;;;;;8.88;8.02;;;32.90;63.40;;;;;;5046459;28;20205;-78
2022/07/23 11:35:33;;;;;;;17.17;8.80;;;32.80;60.50;;;;;;5034836;28;20037;-78
2022/07/23 11:38:08;;;;;;;8.73;7.03;;;32.90;62.40;;;;;;5045523;28;20103;-78
2022/07/23 11:40:34;;;;;;;9.52;8.52;;;32.90;61.20;;;;;;5035009;28;20024;-79
2022/07/23 11:43:04;;;;;;;11.13;8.10;;;32.90;63.10;;;;;;5045393;28;20046;-78
2022/07/23 11:45:33;;;;;;;10.20;7.57;;;33.00;62.50;;;;;;5033035;28;20538;-78
2022/07/23 11:47:59;;;;;;;13.32;10.35;;;33.10;63.00;;;;;;5044086;28;20029;-78
2022/07/23 11:50:25;;;;;;;12.38;10.52;;;33.00;64.60;;;;;;5034315;28;20025;-79
2022/07/23 11:52:52;;;;;;;16.80;9.85;;;32.90;66.00;;;;;;5041349;28;20026;-79
2022/07/23 11:55:19;;;;;;;18.27;11.77;;;32.90;65.00;;;;;;5054386;28;20441;-80
2022/07/23 11:57:45;;;;;;;13.27;11.73;;;32.90;66.90;;;;;;5046535;28;20121;-77
2022/07/23 12:00:25;;;;;;;12.95;11.45;;;32.90;65.70;;;;;;5033152;28;20037;-79
2022/07/23 12:02:55;;;;;;;16.63;12.13;;;32.80;64.80;;;;;;5048843;28;20032;-78
2022/07/23 12:05:26;;;;;;;13.40;11.55;;;32.70;65.20;;;;;;5034273;28;20416;-77
2022/07/23 12:07:54;;;;;;;17.52;11.77;;;32.60;65.60;;;;;;5045624;28;20025;-79
2022/07/23 12:10:21;;;;;;;14.15;11.57;;;32.80;64.90;;;;;;5033905;28;20252;-78
2022/07/23 12:12:52;;;;;;;23.30;10.25;;;33.80;65.20;;;;;;5039825;28;20434;-78
2022/07/23 12:15:22;;;;;;;15.07;10.38;;;35.00;61.60;;;;;;5052656;28;20037;-79
2022/07/23 12:17:51;;;;;;;11.85;8.70;;;36.20;60.10;;;;;;5040055;28;20026;-79
2022/07/23 12:20:26;;;;;;;11.40;8.55;;;36.90;58.10;;;;;;5053924;28;20079;-78
2022/07/23 12:22:56;;;;;;;7.25;5.75;;;38.00;58.00;;;;;;5044674;28;20103;-79
2022/07/23 12:25:25;;;;;;;5.72;4.68;;;38.40;54.30;;;;;;5033515;28;20053;-81
2022/07/23 12:28:07;;;;;;;7.32;4.88;;;38.30;53.00;;;;;;5039919;28;20091;-81
2022/07/23 12:30:41;;;;;;;6.63;4.80;;;38.30;53.20;;;;;;5052829;28;20037;-79
2022/07/23 12:33:09;;;;;;;14.07;6.40;;;38.50;52.40;;;;;;5049258;28;20021;-79
2022/07/23 12:35:43;;;;;;;7.85;5.25;;;38.90;52.80;;;;;;5033847;28;20507;-80
2022/07/23 12:38:12;;;;;;;6.20;5.47;;;39.00;51.20;;;;;;5042784;28;20017;-80